createdAt,value
2022-09-20T00:00:03.289Z,1010.75
2022-09-20T00:01:03.545Z,1010.76
2022-09-20T00:02:03.771Z,1010.73
2022-09-20T00:03:04.110Z,1010.76
2022-09-20T00:04:04.471Z,1010.75
2022-09-20T00:05:04.797Z,1010.70
2022-09-20T00:06:05.006Z,1010.80
2022-09-20T00:07:05.343Z,1010.76
2022-09-20T00:08:05.693Z,1010.77
2022-09-20T00:09:06.026Z,1010.79
2022-09-20T00:10:06.379Z,1010.73
2022-09-20T00:11:06.598Z,1010.81
2022-09-20T00:12:06.923Z,1010.74
2022-09-20T00:13:07.262Z,1010.78
2022-09-20T00:14:07.584Z,1010.79
2022-09-20T00:15:07.991Z,1010.83
2022-09-20T00:16:08.227Z,1010.84
2022-09-20T00:17:08.452Z,1010.84
2022-09-20T00:18:08.776Z,1010.78
2022-09-20T00:19:09.185Z,1010.82
2022-09-20T00:20:09.403Z,1010.84
2022-09-20T00:21:09.642Z,1010.82
2022-09-20T00:22:09.861Z,1010.88
2022-09-20T00:23:10.196Z,1010.83
2022-09-20T00:24:10.544Z,1010.88
2022-09-20T00:25:10.876Z,1010.82
2022-09-20T00:26:11.114Z,1010.81
2022-09-20T00:27:11.460Z,1010.79
2022-09-20T00:28:11.785Z,1010.84
2022-09-20T00:29:12.270Z,1010.89
2022-09-20T00:30:12.446Z,1010.83
2022-09-20T00:31:12.777Z,1010.91
2022-09-20T00:32:13.146Z,1010.84
2022-09-20T00:33:13.397Z,1010.88
2022-09-20T00:34:13.740Z,1010.88
2022-09-20T00:35:14.092Z,1010.90
2022-09-20T00:36:14.420Z,1010.85
2022-09-20T00:37:14.768Z,1010.88
2022-09-20T00:38:15.098Z,1010.92
2022-09-20T00:39:15.462Z,1010.91
2022-09-20T00:40:15.707Z,1010.90
2022-09-20T00:41:15.927Z,1010.91
2022-09-20T00:42:16.239Z,1010.92
2022-09-20T00:43:16.571Z,1010.93
2022-09-20T00:44:16.949Z,1010.92
2022-09-20T00:45:17.159Z,1010.95
2022-09-20T00:46:17.561Z,1010.96
2022-09-20T00:47:17.772Z,1010.96
2022-09-20T00:48:18.142Z,1010.93
2022-09-20T00:49:18.466Z,1010.92
2022-09-20T00:50:18.701Z,1010.95
2022-09-20T00:51:18.905Z,1010.98
2022-09-20T00:52:19.232Z,1010.93
2022-09-20T00:53:19.570Z,1010.98
2022-09-20T00:54:20.665Z,1010.96
2022-09-20T00:55:20.210Z,1010.93
2022-09-20T00:56:20.556Z,1011.01
2022-09-20T00:57:20.888Z,1010.99
2022-09-20T00:58:21.223Z,1011.02
2022-09-20T00:59:21.576Z,1010.99
2022-09-20T01:00:21.913Z,1010.98
2022-09-20T01:01:22.394Z,1011.01
2022-09-20T01:02:22.566Z,1010.97
2022-09-20T01:03:22.836Z,1010.95
2022-09-20T01:04:23.215Z,1010.92
2022-09-20T01:05:23.415Z,1010.95
2022-09-20T01:06:23.765Z,1011.02
2022-09-20T01:07:24.105Z,1010.97
2022-09-20T01:08:24.424Z,1010.93
2022-09-20T01:09:24.748Z,1011.00
2022-09-20T01:10:25.071Z,1010.98
2022-09-20T01:11:25.375Z,1010.97
2022-09-20T01:12:25.706Z,1010.97
2022-09-20T01:13:26.038Z,1010.98
2022-09-20T01:14:26.357Z,1010.95
2022-09-20T01:15:26.692Z,1010.93
2022-09-20T01:16:27.032Z,1010.97
2022-09-20T01:17:27.358Z,1010.97
2022-09-20T01:18:27.698Z,1010.99
2022-09-20T01:19:28.030Z,1010.96
2022-09-20T01:20:28.347Z,1010.96
2022-09-20T01:21:28.660Z,1010.96
2022-09-20T01:22:28.983Z,1010.96
2022-09-20T01:23:29.314Z,1010.99
2022-09-20T01:24:29.647Z,1010.98
2022-09-20T01:25:29.964Z,1010.97
2022-09-20T01:26:30.294Z,1010.93
2022-09-20T01:27:30.607Z,1011.01
2022-09-20T01:28:30.940Z,1010.99
2022-09-20T01:29:31.248Z,1010.94
2022-09-20T01:30:31.573Z,1011.01
2022-09-20T01:31:32.077Z,1010.94
2022-09-20T01:32:32.222Z,1010.96
2022-09-20T01:33:32.556Z,1010.98
2022-09-20T01:34:32.862Z,1010.99
2022-09-20T01:35:33.184Z,1010.96
2022-09-20T01:36:33.521Z,1011.02
2022-09-20T01:37:33.925Z,1011.00
2022-09-20T01:38:34.142Z,1010.98
2022-09-20T01:39:34.474Z,1010.95
2022-09-20T01:40:34.930Z,1010.96
2022-09-20T01:41:35.091Z,1011.05
2022-09-20T01:42:35.412Z,1010.94
2022-09-20T01:43:35.675Z,1011.02
2022-09-20T01:44:35.993Z,1011.02
2022-09-20T01:45:37.258Z,1011.03
2022-09-20T01:46:36.641Z,1010.98
2022-09-20T01:47:36.965Z,1011.12
2022-09-20T01:48:37.293Z,1011.02
2022-09-20T01:49:37.655Z,1010.98
2022-09-20T01:50:37.855Z,1011.02
2022-09-20T01:51:38.178Z,1011.05
2022-09-20T01:52:38.470Z,1011.11
2022-09-20T01:53:38.784Z,1011.06
2022-09-20T01:54:39.097Z,1011.08
2022-09-20T01:55:39.417Z,1011.10
2022-09-20T01:56:39.872Z,1011.10
2022-09-20T01:57:40.097Z,1011.06
2022-09-20T01:58:40.307Z,1011.14
2022-09-20T01:59:40.613Z,1011.08
2022-09-20T02:00:40.937Z,1011.09
2022-09-20T02:01:41.301Z,1011.08
2022-09-20T02:02:41.673Z,1011.11
2022-09-20T02:03:41.888Z,1011.12
2022-09-20T02:04:42.308Z,1011.10
2022-09-20T02:05:42.514Z,1011.10
2022-09-20T02:06:42.808Z,1011.08
2022-09-20T02:07:43.098Z,1011.16
2022-09-20T02:08:44.380Z,1011.17
2022-09-20T02:09:43.724Z,1011.17
2022-09-20T02:10:44.038Z,1011.14
2022-09-20T02:11:44.320Z,1011.17
2022-09-20T02:12:44.629Z,1011.19
2022-09-20T02:13:44.951Z,1011.17
2022-09-20T02:14:45.249Z,1011.23
2022-09-20T02:15:45.540Z,1011.23
2022-09-20T02:16:45.899Z,1011.21
2022-09-20T02:17:46.084Z,1011.19
2022-09-20T02:18:46.409Z,1011.25
2022-09-20T02:19:46.783Z,1011.22
2022-09-20T02:20:46.972Z,1011.27
2022-09-20T02:21:47.273Z,1011.30
2022-09-20T02:22:47.641Z,1011.25
2022-09-20T02:23:47.960Z,1011.26
2022-09-20T02:24:48.293Z,1011.29
2022-09-20T02:25:48.582Z,1011.32
2022-09-20T02:26:48.937Z,1011.30
2022-09-20T02:27:49.415Z,1011.31
2022-09-20T02:28:49.415Z,1011.30
2022-09-20T02:29:49.710Z,1011.30
2022-09-20T02:30:50.020Z,1011.29
2022-09-20T02:31:50.340Z,1011.31
2022-09-20T02:32:50.712Z,1011.28
2022-09-20T02:33:50.886Z,1011.29
2022-09-20T02:34:51.167Z,1011.36
2022-09-20T02:35:51.447Z,1011.26
2022-09-20T02:36:51.736Z,1011.31
2022-09-20T02:37:52.015Z,1011.29
2022-09-20T02:38:52.373Z,1011.33
2022-09-20T02:39:52.535Z,1011.34
2022-09-20T02:40:52.817Z,1011.36
2022-09-20T02:41:53.102Z,1011.32
2022-09-20T02:42:53.367Z,1011.44
2022-09-20T02:43:53.640Z,1011.40
2022-09-20T02:44:53.919Z,1011.37
2022-09-20T02:45:54.222Z,1011.35
2022-09-20T02:46:54.478Z,1011.42
2022-09-20T02:47:54.880Z,1011.36
2022-09-20T02:48:55.021Z,1011.41
2022-09-20T02:49:55.299Z,1011.36
2022-09-20T02:50:55.569Z,1011.41
2022-09-20T02:51:55.830Z,1011.38
2022-09-20T02:52:56.100Z,1011.39
2022-09-20T02:53:56.373Z,1011.34
2022-09-20T02:54:56.644Z,1011.37
2022-09-20T02:55:56.899Z,1011.39
2022-09-20T02:56:57.181Z,1011.42
2022-09-20T02:57:57.491Z,1011.40
2022-09-20T02:58:57.759Z,1011.35
2022-09-20T02:59:58.029Z,1011.37
2022-09-20T03:00:58.309Z,1011.36
2022-09-20T03:01:58.655Z,1011.40
2022-09-20T03:02:58.801Z,1011.40
2022-09-20T03:03:59.073Z,1011.36
2022-09-20T03:04:59.332Z,1011.38
2022-09-20T03:05:59.593Z,1011.40
2022-09-20T03:06:59.847Z,1011.45
2022-09-20T03:08:02.900Z,1011.41
2022-09-20T03:09:00.435Z,1011.41
2022-09-20T03:10:00.692Z,1011.50
2022-09-20T03:11:00.968Z,1011.44
2022-09-20T03:12:01.174Z,1011.47
2022-09-20T03:13:01.463Z,1011.47
2022-09-20T03:14:01.706Z,1011.50
2022-09-20T03:15:01.972Z,1011.47
2022-09-20T03:16:02.209Z,1011.48
2022-09-20T03:17:02.528Z,1011.48
2022-09-20T03:18:02.797Z,1011.47
2022-09-20T03:19:03.038Z,1011.50
2022-09-20T03:20:03.287Z,1011.48
2022-09-20T03:21:03.573Z,1011.52
2022-09-20T03:22:03.808Z,1011.43
2022-09-20T03:23:04.106Z,1011.46
2022-09-20T03:24:04.343Z,1011.49
2022-09-20T03:25:04.610Z,1011.49
2022-09-20T03:26:04.837Z,1011.47
2022-09-20T03:27:05.067Z,1011.46
2022-09-20T03:28:05.321Z,1011.57
2022-09-20T03:29:05.585Z,1011.50
2022-09-20T03:30:05.818Z,1011.52
2022-09-20T03:31:06.055Z,1011.50
2022-09-20T03:32:06.381Z,1011.50
2022-09-20T03:33:06.628Z,1011.60
2022-09-20T03:34:06.866Z,1011.60
2022-09-20T03:35:07.139Z,1011.60
2022-09-20T03:36:07.364Z,1011.59
2022-09-20T03:37:07.716Z,1011.57
2022-09-20T03:38:07.973Z,1011.61
2022-09-20T03:39:08.201Z,1011.59
2022-09-20T03:40:08.621Z,1011.59
2022-09-20T03:41:08.822Z,1011.57
2022-09-20T03:42:09.060Z,1011.57
2022-09-20T03:43:09.297Z,1011.59
2022-09-20T03:44:09.584Z,1011.61
2022-09-20T03:45:09.813Z,1011.57
2022-09-20T03:46:10.094Z,1011.57
2022-09-20T03:47:10.332Z,1011.63
2022-09-20T03:48:10.680Z,1011.58
2022-09-20T03:49:10.961Z,1011.64
2022-09-20T03:50:11.199Z,1011.62
2022-09-20T03:51:11.421Z,1011.69
2022-09-20T03:52:11.762Z,1011.66
2022-09-20T03:53:12.123Z,1011.59
2022-09-20T03:54:12.344Z,1011.65
2022-09-20T03:55:12.693Z,1011.62
2022-09-20T03:56:12.940Z,1011.64
2022-09-20T03:57:13.321Z,1011.68
2022-09-20T03:58:13.544Z,1011.62
2022-09-20T03:59:13.772Z,1011.67
2022-09-20T04:00:13.990Z,1011.63
2022-09-20T04:01:14.382Z,1011.67
2022-09-20T04:02:14.666Z,1011.67
2022-09-20T04:03:15.316Z,1011.64
2022-09-20T04:04:15.214Z,1011.66
2022-09-20T04:05:15.448Z,1011.62
2022-09-20T04:06:15.788Z,1011.69
2022-09-20T04:07:16.135Z,1011.74
2022-09-20T04:08:16.377Z,1011.73
2022-09-20T04:09:16.587Z,1011.73
2022-09-20T04:10:16.925Z,1011.73
2022-09-20T04:11:17.275Z,1011.73
2022-09-20T04:12:17.518Z,1011.72
2022-09-20T04:13:17.747Z,1011.77
2022-09-20T04:14:17.978Z,1011.73
2022-09-20T04:15:18.235Z,1011.75
2022-09-20T04:16:18.493Z,1011.82
2022-09-20T04:17:18.709Z,1011.80
2022-09-20T04:18:18.932Z,1011.80
2022-09-20T04:19:19.297Z,1011.77
2022-09-20T04:20:19.502Z,1011.85
2022-09-20T04:21:19.850Z,1011.81
2022-09-20T04:22:20.103Z,1011.81
2022-09-20T04:23:20.333Z,1011.78
2022-09-20T04:24:20.559Z,1011.79
2022-09-20T04:25:20.790Z,1011.82
2022-09-20T04:26:21.022Z,1011.83
2022-09-20T04:27:21.290Z,1011.79
2022-09-20T04:28:21.543Z,1011.84
2022-09-20T04:29:21.818Z,1011.85
2022-09-20T04:30:22.153Z,1011.79
2022-09-20T04:31:22.516Z,1011.82
2022-09-20T04:32:22.732Z,1011.84
2022-09-20T04:33:23.015Z,1011.85
2022-09-20T04:34:23.252Z,1011.87
2022-09-20T04:35:23.542Z,1011.88
2022-09-20T04:36:23.804Z,1011.84
2022-09-20T04:37:24.094Z,1011.86
2022-09-20T04:38:24.363Z,1011.85
2022-09-20T04:39:24.594Z,1011.92
2022-09-20T04:40:25.966Z,1011.84
2022-09-20T04:41:25.467Z,1011.83
2022-09-20T04:42:25.649Z,1011.82
2022-09-20T04:43:26.094Z,1011.85
2022-09-20T04:44:26.188Z,1011.82
2022-09-20T04:45:26.468Z,1011.85
2022-09-20T04:46:26.903Z,1011.82
2022-09-20T04:47:26.997Z,1011.88
2022-09-20T04:48:27.245Z,1011.88
2022-09-20T04:49:27.537Z,1011.87
2022-09-20T04:50:27.834Z,1011.88
2022-09-20T04:51:28.086Z,1011.89
2022-09-20T04:52:28.462Z,1011.90
2022-09-20T04:53:28.709Z,1011.90
2022-09-20T04:54:28.957Z,1011.85
2022-09-20T04:55:29.206Z,1011.91
2022-09-20T04:56:29.473Z,1011.94
2022-09-20T04:57:29.797Z,1011.93
2022-09-20T04:58:30.067Z,1011.94
2022-09-20T04:59:30.427Z,1011.90
2022-09-20T05:00:30.556Z,1011.93
2022-09-20T05:01:32.480Z,1011.94
2022-09-20T05:02:31.169Z,1012.01
2022-09-20T05:03:31.407Z,1012.03
2022-09-20T05:04:31.662Z,1011.99
2022-09-20T05:05:31.912Z,1011.96
2022-09-20T05:06:32.258Z,1012.05
2022-09-20T05:07:32.623Z,1011.98
2022-09-20T05:08:32.931Z,1012.00
2022-09-20T05:09:33.122Z,1012.03
2022-09-20T05:10:33.391Z,1012.06
2022-09-20T05:11:33.751Z,1012.05
2022-09-20T05:12:33.930Z,1012.10
2022-09-20T05:13:34.249Z,1012.06
2022-09-20T05:14:34.693Z,1012.05
2022-09-20T05:15:34.899Z,1012.12
2022-09-20T05:16:35.126Z,1012.13
2022-09-20T05:17:35.421Z,1012.11
2022-09-20T05:18:35.732Z,1012.10
2022-09-20T05:19:36.099Z,1012.09
2022-09-20T05:20:36.353Z,1012.13
2022-09-20T05:21:36.683Z,1012.13
2022-09-20T05:22:37.041Z,1012.17
2022-09-20T05:23:37.296Z,1012.16
2022-09-20T05:24:37.522Z,1012.23
2022-09-20T05:25:37.852Z,1012.13
2022-09-20T05:26:38.156Z,1012.15
2022-09-20T05:27:38.451Z,1012.20
2022-09-20T05:28:38.752Z,1012.21
2022-09-20T05:29:39.103Z,1012.19
2022-09-20T05:30:39.394Z,1012.26
2022-09-20T05:31:39.756Z,1012.23
2022-09-20T05:32:40.071Z,1012.21
2022-09-20T05:33:40.220Z,1012.30
2022-09-20T05:34:40.553Z,1012.27
2022-09-20T05:35:40.942Z,1012.26
2022-09-20T05:36:41.154Z,1012.29
2022-09-20T05:37:41.477Z,1012.25
2022-09-20T05:38:41.816Z,1012.30
2022-09-20T05:39:42.174Z,1012.35
2022-09-20T05:40:42.497Z,1012.40
2022-09-20T05:41:42.838Z,1012.44
2022-09-20T05:42:43.189Z,1012.42
2022-09-20T05:43:43.407Z,1012.42
2022-09-20T05:44:43.861Z,1012.37
2022-09-20T05:45:44.078Z,1012.42
2022-09-20T05:46:44.388Z,1012.47
2022-09-20T05:47:45.591Z,1012.34
2022-09-20T05:48:44.950Z,1012.40
2022-09-20T05:49:45.217Z,1012.40
2022-09-20T05:50:45.469Z,1012.40
2022-09-20T05:51:45.728Z,1012.38
2022-09-20T05:52:45.959Z,1012.40
2022-09-20T05:53:46.210Z,1012.41
2022-09-20T05:54:46.482Z,1012.40
2022-09-20T05:55:46.900Z,1012.43
2022-09-20T05:56:46.981Z,1012.40
2022-09-20T05:57:47.234Z,1012.42
2022-09-20T05:58:47.499Z,1012.44
2022-09-20T05:59:47.770Z,1012.47
2022-09-20T06:00:48.085Z,1012.51
2022-09-20T06:01:48.393Z,1012.46
2022-09-20T06:02:48.649Z,1012.56
2022-09-20T06:03:48.920Z,1012.57
2022-09-20T06:04:49.206Z,1012.53
2022-09-20T06:05:49.461Z,1012.59
2022-09-20T06:06:49.716Z,1012.60
2022-09-20T06:07:49.974Z,1012.57
2022-09-20T06:08:50.246Z,1012.52
2022-09-20T06:09:50.525Z,1012.59
2022-09-20T06:10:50.784Z,1012.60
2022-09-20T06:11:51.037Z,1012.62
2022-09-20T06:12:51.274Z,1012.64
2022-09-20T06:13:51.664Z,1012.59
2022-09-20T06:14:51.916Z,1012.63
2022-09-20T06:15:52.154Z,1012.55
2022-09-20T06:16:52.554Z,1012.60
2022-09-20T06:17:52.750Z,1012.61
2022-09-20T06:18:53.013Z,1012.55
2022-09-20T06:19:53.335Z,1012.61
2022-09-20T06:20:53.618Z,1012.59
2022-09-20T06:21:53.886Z,1012.66
2022-09-20T06:22:54.156Z,1012.58
2022-09-20T06:23:54.468Z,1012.64
2022-09-20T06:24:54.755Z,1012.64
2022-09-20T06:25:55.000Z,1012.66
2022-09-20T06:26:55.328Z,1012.58
2022-09-20T06:27:55.590Z,1012.66
2022-09-20T06:28:58.333Z,1012.69
2022-09-20T06:29:56.097Z,1012.69
2022-09-20T06:30:56.397Z,1012.68
2022-09-20T06:31:56.707Z,1012.71
2022-09-20T06:32:57.012Z,1012.70
2022-09-20T06:33:57.261Z,1012.75
2022-09-20T06:34:57.519Z,1012.72
2022-09-20T06:35:59.164Z,1012.69
2022-09-20T06:36:58.034Z,1012.68
2022-09-20T06:37:58.271Z,1012.74
2022-09-20T06:38:58.510Z,1012.67
2022-09-20T06:39:58.911Z,1012.70
2022-09-20T06:40:59.042Z,1012.72
2022-09-20T06:41:59.293Z,1012.73
2022-09-20T06:42:59.554Z,1012.80
2022-09-20T06:43:59.874Z,1012.79
2022-09-20T06:45:00.148Z,1012.79
2022-09-20T06:46:00.439Z,1012.76
2022-09-20T06:47:00.761Z,1012.75
2022-09-20T06:48:01.084Z,1012.80
2022-09-20T06:49:01.355Z,1012.83
2022-09-20T06:50:01.754Z,1012.78
2022-09-20T06:51:01.930Z,1012.79
2022-09-20T06:52:02.242Z,1012.76
2022-09-20T06:53:02.595Z,1012.80
2022-09-20T06:54:02.783Z,1012.79
2022-09-20T06:55:03.068Z,1012.84
2022-09-20T06:56:03.343Z,1012.88
2022-09-20T06:57:03.626Z,1012.82
2022-09-20T06:58:03.949Z,1012.86
2022-09-20T06:59:04.288Z,1012.96
2022-09-20T07:00:04.539Z,1012.89
2022-09-20T07:01:04.779Z,1012.96
2022-09-20T07:02:04.985Z,1012.92
2022-09-20T07:03:05.305Z,1012.95
2022-09-20T07:04:05.586Z,1012.93
2022-09-20T07:05:06.119Z,1012.94
2022-09-20T07:06:06.129Z,1013.00
2022-09-20T07:07:09.408Z,1012.96
2022-09-20T07:08:06.728Z,1012.95
2022-09-20T07:09:06.989Z,1012.98
2022-09-20T07:10:07.282Z,1012.99
2022-09-20T07:11:07.590Z,1012.95
2022-09-20T07:12:07.889Z,1012.96
2022-09-20T07:13:08.169Z,1012.96
2022-09-20T07:14:08.523Z,1012.89
2022-09-20T07:15:08.783Z,1012.92
2022-09-20T07:16:09.145Z,1012.92
2022-09-20T07:17:09.294Z,1012.93
2022-09-20T07:18:09.579Z,1012.96
2022-09-20T07:19:09.961Z,1013.03
2022-09-20T07:20:10.179Z,1013.04
2022-09-20T07:21:10.465Z,1013.04
2022-09-20T07:22:10.813Z,1013.00
2022-09-20T07:23:10.957Z,1013.06
2022-09-20T07:24:11.238Z,1013.05
2022-09-20T07:25:11.482Z,1013.11
2022-09-20T07:26:11.826Z,1013.04
2022-09-20T07:27:12.158Z,1013.03
2022-09-20T07:28:12.427Z,1013.09
2022-09-20T07:29:12.694Z,1013.11
2022-09-20T07:30:12.981Z,1013.11
2022-09-20T07:31:13.261Z,1013.08
2022-09-20T07:32:13.564Z,1013.15
2022-09-20T07:33:13.835Z,1013.11
2022-09-20T07:34:14.285Z,1013.15
2022-09-20T07:35:14.865Z,1013.12
2022-09-20T07:36:14.888Z,1013.14
2022-09-20T07:37:15.133Z,1013.22
2022-09-20T07:38:15.258Z,1013.11
2022-09-20T07:39:15.549Z,1013.13
2022-09-20T07:40:16.433Z,1013.13
2022-09-20T07:41:16.116Z,1013.08
2022-09-20T07:42:16.427Z,1013.18
2022-09-20T07:43:16.736Z,1013.14
2022-09-20T07:44:16.920Z,1013.17
2022-09-20T07:45:18.178Z,1013.16
2022-09-20T07:46:17.561Z,1013.15
2022-09-20T07:47:17.832Z,1013.15
2022-09-20T07:48:18.134Z,1013.21
2022-09-20T07:49:18.478Z,1013.20
2022-09-20T07:50:18.690Z,1013.25
2022-09-20T07:51:19.014Z,1013.22
2022-09-20T07:52:19.418Z,1013.22
2022-09-20T07:53:19.771Z,1013.23
2022-09-20T07:54:19.881Z,1013.23
2022-09-20T07:55:20.324Z,1013.27
2022-09-20T07:56:20.444Z,1013.32
2022-09-20T07:57:20.958Z,1013.26
2022-09-20T07:58:21.032Z,1013.31
2022-09-20T07:59:21.358Z,1013.34
2022-09-20T08:00:21.781Z,1013.28
2022-09-20T08:01:29.524Z,1013.29
2022-09-20T08:03:50.919Z,0.00
2022-09-20T08:06:06.564Z,0.00
2022-09-20T08:09:45.371Z,0.00
2022-09-20T08:10:44.589Z,0.00
2022-09-20T08:11:43.708Z,0.00
2022-09-20T08:14:45.279Z,0.00
2022-09-20T08:15:44.202Z,0.00
2022-09-20T08:16:44.384Z,0.00
2022-09-20T08:19:13.709Z,0.00
2022-09-20T08:20:14.648Z,0.00
2022-09-20T08:21:13.430Z,0.00
2022-09-20T08:22:15.167Z,0.00
2022-09-20T08:23:23.508Z,0.00
2022-09-20T08:24:14.574Z,0.00
2022-09-20T08:25:12.956Z,0.00
2022-09-20T08:26:13.296Z,0.00
2022-09-20T08:27:13.860Z,0.00
2022-09-20T08:28:13.511Z,0.00
2022-09-20T08:29:13.328Z,0.00
2022-09-20T08:30:15.573Z,0.00
2022-09-20T08:43:37.696Z,0.00
2022-09-20T08:44:37.876Z,0.00
2022-09-20T08:45:37.779Z,0.00
2022-09-20T08:48:10.752Z,0.00
2022-09-20T08:49:10.974Z,0.00
2022-09-20T08:50:11.518Z,0.00
2022-09-20T08:51:15.009Z,0.00
2022-09-20T08:58:03.903Z,1013.61
2022-09-20T09:00:28.881Z,1013.56
2022-09-20T09:01:23.978Z,1013.69
2022-09-20T09:02:23.929Z,1013.62
2022-09-20T09:03:23.980Z,1013.58
2022-09-20T09:04:24.233Z,1013.58
2022-09-20T09:05:24.562Z,1013.60
2022-09-20T09:06:24.431Z,1013.62
2022-09-20T09:07:24.779Z,1013.63
2022-09-20T09:08:24.779Z,1013.62
2022-09-20T09:09:25.230Z,1013.65
2022-09-20T09:10:25.528Z,1013.61
2022-09-20T09:11:25.626Z,1013.63
2022-09-20T09:12:25.932Z,1013.60
2022-09-20T09:13:26.259Z,1013.61
2022-09-20T09:14:26.583Z,1013.62
2022-09-20T09:15:26.893Z,1013.63
2022-09-20T09:16:34.458Z,1013.65
2022-09-20T09:17:28.482Z,1013.62
2022-09-20T09:18:31.645Z,1013.60
2022-09-20T09:19:33.366Z,1013.63
2022-09-20T09:20:29.224Z,1013.66
2022-09-20T09:21:28.456Z,1013.68
2022-09-20T09:22:28.735Z,1013.64
2022-09-20T09:23:29.066Z,1013.67
2022-09-20T09:24:29.353Z,1013.63
2022-09-20T09:25:29.656Z,1013.63
2022-09-20T09:26:29.947Z,1013.61
2022-09-20T09:27:30.251Z,1013.63
2022-09-20T09:28:30.535Z,1013.64
2022-09-20T09:29:34.749Z,1013.64
2022-09-20T09:30:31.150Z,1013.63
2022-09-20T09:31:31.505Z,1013.69
2022-09-20T09:32:31.820Z,1013.60
2022-09-20T09:33:32.157Z,1013.63
2022-09-20T09:34:32.494Z,1013.61
2022-09-20T09:35:32.764Z,1013.61
2022-09-20T09:36:33.110Z,1013.54
2022-09-20T09:37:33.485Z,1013.63
2022-09-20T09:38:33.676Z,1013.59
2022-09-20T09:39:34.002Z,1013.56
2022-09-20T09:40:34.312Z,1013.68
2022-09-20T09:41:34.562Z,1013.66
2022-09-20T09:42:34.881Z,1013.62
2022-09-20T09:43:35.264Z,1013.69
2022-09-20T09:44:35.453Z,1013.72
2022-09-20T09:45:35.786Z,1013.73
2022-09-20T09:46:35.944Z,1013.70
2022-09-20T09:47:36.217Z,1013.69
2022-09-20T09:48:38.588Z,1013.64
2022-09-20T09:49:36.750Z,1013.68
2022-09-20T09:50:37.047Z,1013.67
2022-09-20T09:51:37.346Z,1013.65
2022-09-20T09:52:37.666Z,1013.69
2022-09-20T09:53:37.996Z,1013.63
2022-09-20T09:54:38.271Z,1013.62
2022-09-20T09:55:38.576Z,1013.63
2022-09-20T09:56:38.826Z,1013.62
2022-09-20T09:57:39.135Z,1013.64
2022-09-20T09:58:39.408Z,1013.67
2022-09-20T09:59:39.728Z,1013.67
2022-09-20T10:00:40.006Z,1013.64
2022-09-20T10:01:40.414Z,1013.62
2022-09-20T10:02:40.608Z,1013.65
2022-09-20T10:03:40.880Z,1013.66
2022-09-20T10:04:41.303Z,1013.67
2022-09-20T10:05:41.472Z,1013.64
2022-09-20T10:06:41.812Z,1013.63
2022-09-20T10:07:42.113Z,1013.64
2022-09-20T10:08:42.421Z,1013.59
2022-09-20T10:09:42.720Z,1013.65
2022-09-20T10:10:42.987Z,1013.62
2022-09-20T10:11:43.293Z,1013.57
2022-09-20T10:12:43.687Z,1013.55
2022-09-20T10:13:43.923Z,1013.59
2022-09-20T10:14:44.724Z,1013.59
2022-09-20T10:15:44.530Z,1013.59
2022-09-20T10:16:45.834Z,1013.57
2022-09-20T10:17:45.085Z,1013.45
2022-09-20T10:18:45.604Z,1013.49
2022-09-20T10:19:54.064Z,1013.46
2022-09-20T10:21:21.130Z,1013.49
2022-09-20T10:21:47.226Z,1013.40
2022-09-20T10:24:03.005Z,1013.47
2022-09-20T10:24:51.390Z,1013.56
2022-09-20T10:25:47.647Z,1013.57
2022-09-20T10:26:49.089Z,1013.56
2022-09-20T10:27:48.088Z,1013.52
2022-09-20T10:28:48.460Z,1013.51
2022-09-20T10:29:48.629Z,1013.51
2022-09-20T10:30:48.965Z,1013.57
2022-09-20T10:31:49.240Z,1013.56
2022-09-20T10:32:49.530Z,1013.58
2022-09-20T10:33:49.851Z,1013.57
2022-09-20T10:34:50.261Z,1013.52
2022-09-20T10:35:50.429Z,1013.52
2022-09-20T10:36:50.732Z,1013.58
2022-09-20T10:37:51.001Z,1013.53
2022-09-20T10:38:51.335Z,1013.53
2022-09-20T10:39:51.630Z,1013.59
2022-09-20T10:40:51.932Z,1013.60
2022-09-20T10:41:52.242Z,1013.56
2022-09-20T10:42:52.616Z,1013.66
2022-09-20T10:43:52.867Z,1013.65
2022-09-20T10:44:53.076Z,1013.57
2022-09-20T10:46:14.499Z,1013.76
2022-09-20T10:46:54.754Z,1013.78
2022-09-20T10:47:53.975Z,1013.86
2022-09-20T10:48:54.281Z,1013.86
2022-09-20T10:49:55.326Z,1013.88
2022-09-20T10:50:54.795Z,1013.85
2022-09-20T10:51:55.138Z,1013.92
2022-09-20T10:52:55.485Z,1013.96
2022-09-20T10:53:55.739Z,1013.94
2022-09-20T10:54:56.055Z,1014.04
2022-09-20T10:55:56.334Z,1014.04
2022-09-20T10:56:56.601Z,1014.02
2022-09-20T10:57:56.912Z,1014.08
2022-09-20T10:58:57.213Z,1014.00
2022-09-20T10:59:57.510Z,1014.03
2022-09-20T11:00:57.814Z,1014.00
2022-09-20T11:01:58.197Z,1014.04
2022-09-20T11:02:58.381Z,1014.07
2022-09-20T11:03:58.703Z,1014.02
2022-09-20T11:04:59.005Z,1014.05
2022-09-20T11:05:59.245Z,1014.05
2022-09-20T11:06:59.562Z,1014.12
2022-09-20T11:07:59.822Z,1014.06
2022-09-20T11:09:00.123Z,1014.05
2022-09-20T11:10:00.435Z,1014.04
2022-09-20T11:11:00.715Z,1014.05
2022-09-20T11:12:01.035Z,1014.08
2022-09-20T11:13:01.316Z,1014.05
2022-09-20T11:14:01.596Z,1014.03
2022-09-20T11:15:01.906Z,1014.04
2022-09-20T11:16:02.224Z,1014.10
2022-09-20T11:17:02.624Z,1014.04
2022-09-20T11:18:02.747Z,1014.05
2022-09-20T11:19:03.017Z,1014.04
2022-09-20T11:20:07.094Z,1014.07
2022-09-20T11:21:04.160Z,1014.05
2022-09-20T11:22:03.894Z,1014.10
2022-09-20T11:23:04.181Z,1014.05
2022-09-20T11:24:04.498Z,1014.09
2022-09-20T11:25:04.997Z,1014.07
